WetterOnline ( https://www.wetteronline.de )

Wetter aktuell Rugensee

Aktuelles Wetter: Schwerin (68m)

6-stündlich | Neueste Meldungen
Ortszeit Temperatur Wetter
Mi, 21.08. 20:00 18.9° C bedeckt
Mi, 21.08. 14:00 18.6° C bedeckt
Mi, 21.08. 8:00 13.2° C wolkenlos
Mi, 21.08. 2:00 13.1° C wolkig
Di, 20.08. 20:00 19.0° C wolkig
Di, 20.08. 14:00 20.7° C leicht bewölkt
Di, 20.08. 8:00 13.7° C fast wolkenlos
Di, 20.08. 2:00 13.8° C leicht bewölkt
Ortszeit Temperatur Wetter
Do, 22.08. 1:00 13.1° C wolkenlos
Do, 22.08. 0:50 13.1° C wolkenlos
Do, 22.08. 0:40 13.1° C wolkenlos
Do, 22.08. 0:30 13.2° C wolkenlos
Do, 22.08. 0:20 13.2° C wolkenlos
Do, 22.08. 0:10 13.3° C fast wolkenlos
Do, 22.08. 0:00 13.7° C leicht bewölkt
Mi, 21.08. 23:30 14.4° C leicht bewölkt
Mi, 21.08. 23:00 14.6° C wolkig
Mi, 21.08. 22:30 14.9° C wolkig
Mi, 21.08. 22:00 15.2° C wolkig
Ortszeit Relative Feuchte Sichtweite
Mi, 21.08. 20:00 63% 50 km
Mi, 21.08. 14:00 59% 60 km
Mi, 21.08. 8:00 91% 23 km
Mi, 21.08. 2:00 94% 29 km
Di, 20.08. 20:00 62% 55 km
Di, 20.08. 14:00 48% 55 km
Di, 20.08. 8:00 80% 45 km
Di, 20.08. 2:00 81% 35 km
Ortszeit Relative Feuchte Sichtweite
Do, 22.08. 1:00 92% 45 km
Do, 22.08. 0:50 92% -
Do, 22.08. 0:40 94% -
Do, 22.08. 0:30 94% 45 km
Do, 22.08. 0:20 94% -
Do, 22.08. 0:10 92% -
Do, 22.08. 0:00 94% 50 km
Mi, 21.08. 23:30 93% 40 km
Mi, 21.08. 23:00 86% 50 km
Mi, 21.08. 22:30 84% 45 km
Mi, 21.08. 22:00 82% 60 km
Ortszeit Niederschlagsmenge Niederschlagsart
Mi, 21.08. 20:00 0.0 l/m2 in 12 Std. -
Mi, 21.08. 14:00 0.0 l/m2 in 6 Std. -
Mi, 21.08. 8:00 0.4 l/m2 in 12 Std. Regen
Mi, 21.08. 2:00 0.3 l/m2 in 6 Std. Regen
Di, 20.08. 20:00 0.0 l/m2 in 12 Std. -
Di, 20.08. 14:00 0.0 l/m2 in 6 Std. -
Di, 20.08. 8:00 0.0 l/m2 in 12 Std. -
Di, 20.08. 2:00 0.0 l/m2 in 6 Std. -
Ortszeit Niederschlagsmenge Niederschlagsart
Do, 22.08. 1:00 0.0 l/m2 in 1 Std. -
Do, 22.08. 0:50 keine Meldung -
Do, 22.08. 0:40 keine Meldung -
Do, 22.08. 0:30 0.0 l/m2 in 1 Std. -
Do, 22.08. 0:20 keine Meldung -
Do, 22.08. 0:10 keine Meldung -
Do, 22.08. 0:00 0.0 l/m2 in 1 Std. -
Mi, 21.08. 23:30 0.0 l/m2 in 1 Std. -
Mi, 21.08. 23:00 0.0 l/m2 in 1 Std. -
Mi, 21.08. 22:30 0.0 l/m2 in 1 Std. -
Mi, 21.08. 22:00 0.0 l/m2 in 1 Std. -
Ortszeit Stärke Spitze Richtung
km/h Bft. km/h Grad Sektor
Mi, 21.08. 20:00 7 2 32 50° NO
Mi, 21.08. 14:00 14 3 32 290° W
Mi, 21.08. 8:00 11 2 18 240° SW
Mi, 21.08. 2:00 4 1 32 290° W
Di, 20.08. 20:00 6 1 30 270° W
Di, 20.08. 14:00 14 3 36 230° SW
Di, 20.08. 8:00 11 2 22 200° S
Di, 20.08. 2:00 11 2 22 220° SW
Ortszeit Stärke Spitze Richtung
km/h Bft. km/h Grad Sektor
Do, 22.08. 1:00 6 1 9 130° SO
Do, 22.08. 0:50 6 1 - 130° SO
Do, 22.08. 0:40 6 1 - 130° SO
Do, 22.08. 0:30 6 1 9 130° SO
Do, 22.08. 0:20 6 1 - 130° SO
Do, 22.08. 0:10 7 2 - 130° SO
Do, 22.08. 0:00 4 1 7 120° SO
Mi, 21.08. 23:30 2 1 7 120° SO
Mi, 21.08. 23:00 4 1 7 110° O
Mi, 21.08. 22:30 6 1 7 100° O
Mi, 21.08. 22:00 6 1 9 110° O
Ortszeit Untergrenze Bedeckung Gattung
total tief tief mittel hoch
Mi, 21.08. 20:00 2100 m 8/8 8/8 - - -
Mi, 21.08. 14:00 1320 m 8/8 8/8 - - -
Mi, 21.08. 8:00 - 0/8 0/8 - - -
Mi, 21.08. 2:00 2700 m 7/8 2/8 - - -
Di, 20.08. 20:00 2400 m 8/8 2/8 - - -
Di, 20.08. 14:00 8100 m 8/8 0/8 - - -
Di, 20.08. 8:00 8400 m 1/8 0/8 - - -
Di, 20.08. 2:00 2700 m 4/8 5/8 - - -
Ortszeit Bedeckungsgrad in Achtel und Wolkenuntergrenze
Do, 22.08. 1:00 keine Wolken
Do, 22.08. 0:50 keine Wolken
Do, 22.08. 0:40 keine Wolken
Do, 22.08. 0:30 keine Wolken
Do, 22.08. 0:20 keine Wolken
Do, 22.08. 0:10 2(9000m)
Do, 22.08. 0:00 1(9000m) 5(9000m)
Mi, 21.08. 23:30 2(7200m) 3(9000m)
Mi, 21.08. 23:00 8(7500m) 8(8700m)
Mi, 21.08. 22:30 8(7800m)
Mi, 21.08. 22:00 8(8400m) 8(9000m)
Ortszeit Luftdruck NN (hPa) Tendenz (hPa in 3 Std.)
Mi, 21.08. 20:00 1028 + 0,4
Mi, 21.08. 14:00 1028 0,0
Mi, 21.08. 8:00 1027 + 1,5
Mi, 21.08. 2:00 1025 + 0,7
Di, 20.08. 20:00 1022 + 0,6
Di, 20.08. 14:00 1021 + 0,4
Di, 20.08. 8:00 1020 + 1,0
Di, 20.08. 2:00 1019 + 0,8
Ortszeit Luftdruck NN (hPa) Tendenz (hPa in 3 Std.)
Do, 22.08. 1:00 1029 + 0,3
Do, 22.08. 0:50 1029 keine Meldung
Do, 22.08. 0:40 1029 keine Meldung
Do, 22.08. 0:30 1029 + 0,5
Do, 22.08. 0:20 1029 keine Meldung
Do, 22.08. 0:10 1029 keine Meldung
Do, 22.08. 0:00 1029 + 0,7
Mi, 21.08. 23:30 1029 + 0,7
Mi, 21.08. 23:00 1029 + 0,5
Mi, 21.08. 22:30 1029 + 0,5
Mi, 21.08. 22:00 1028 + 0,3
Ortszeit Schneehöhe (cm)
Mi, 21.08. 20:00 -
Mi, 21.08. 14:00 -
Mi, 21.08. 8:00 -
Mi, 21.08. 2:00 -
Di, 20.08. 20:00 -
Di, 20.08. 14:00 -
Di, 20.08. 8:00 -
Di, 20.08. 2:00 -
Ortszeit Schneehöhe (cm)
Do, 22.08. 1:00 -
Do, 22.08. 0:50 -
Do, 22.08. 0:40 -
Do, 22.08. 0:30 -
Do, 22.08. 0:20 -
Do, 22.08. 0:10 -
Do, 22.08. 0:00 -
Mi, 21.08. 23:30 -
Mi, 21.08. 23:00 -
Mi, 21.08. 22:30 -
Mi, 21.08. 22:00 -
Link zu dieser Seite / Seite empfehlen

Das Wetter in ...